Time;durP1;ratioP1;P1;durP2;ratioP2;P2;SDS_P1;SDS_P2;PMS_P1;PMS_P2;Temp;Humidity;BMP_temperature;BMP_pressure;BME280_temperature;BME280_humidity;BME280_pressure;Samples;Min_cycle;Max_cycle;Signal;HPM_P1;HPM_P2
2021/09/19 00:01:20;;;;;;;4.25;3.33;;;;;;;11.47;90.70;96236.23;1691815;84;21395;-81
2021/09/19 00:03:46;;;;;;;3.02;2.72;;;;;;;11.42;90.30;96232.41;1662485;83;21062;-81
2021/09/19 00:06:12;;;;;;;4.03;3.10;;;;;;;11.45;90.48;96234.32;1681567;83;21008;-81
2021/09/19 00:08:38;;;;;;;3.72;3.33;;;;;;;11.41;90.46;96237.31;1678006;83;21403;-81
2021/09/19 00:11:04;;;;;;;4.97;3.92;;;;;;;11.44;90.56;96238.72;1682387;83;20981;-81
2021/09/19 00:13:29;;;;;;;5.33;4.00;;;;;;;11.44;90.42;96237.42;1678602;83;21003;-81
2021/09/19 00:15:55;;;;;;;3.90;3.52;;;;;;;11.40;90.48;96237.50;1674595;83;21403;-81
2021/09/19 00:18:21;;;;;;;4.85;3.70;;;;;;;11.42;90.99;96238.91;1679295;83;21048;-81
2021/09/19 00:20:47;;;;;;;4.28;3.87;;;;;;;11.43;90.87;96242.31;1684147;83;21071;-81
2021/09/19 00:23:13;;;;;;;4.55;4.15;;;;;;;11.49;91.03;96239.44;1679488;83;21148;-81
2021/09/19 00:25:40;;;;;;;5.80;5.17;;;;;;;11.52;90.76;96240.36;1678642;84;21029;-81
2021/09/19 00:28:05;;;;;;;6.55;5.70;;;;;;;11.52;90.54;96234.66;1685785;83;21000;-81
2021/09/19 00:30:31;;;;;;;6.80;6.12;;;;;;;11.49;90.34;96242.05;1678829;84;21038;-81
2021/09/19 00:32:58;;;;;;;7.58;6.35;;;;;;;11.44;90.37;96234.81;1670794;83;21071;-81
2021/09/19 00:35:25;;;;;;;8.20;6.92;;;;;;;11.41;90.35;96241.70;1679852;83;20988;-81
2021/09/19 00:37:51;;;;;;;6.30;5.55;;;;;;;11.40;90.55;96238.80;1682846;83;21450;-81
2021/09/19 00:40:17;;;;;;;6.08;5.40;;;;;;;11.36;90.36;96237.55;1684880;83;21021;-81
2021/09/19 00:42:43;;;;;;;6.60;5.85;;;;;;;11.34;90.76;96235.64;1658267;84;20997;-81
2021/09/19 00:45:13;;;;;;;5.42;4.75;;;;;;;11.30;90.83;96237.82;1648100;84;21372;-81
2021/09/19 00:47:39;;;;;;;5.35;4.25;;;;;;;11.24;90.45;96242.48;1666111;84;21032;-81
2021/09/19 00:50:06;;;;;;;5.00;4.50;;;;;;;11.25;91.00;96251.90;1681135;84;21021;-81
2021/09/19 00:52:32;;;;;;;5.37;4.87;;;;;;;11.20;90.52;96257.34;1669961;83;20985;-81
2021/09/19 00:54:59;;;;;;;5.90;5.25;;;;;;;11.20;90.54;96258.64;1676916;83;21023;-81
2021/09/19 00:57:26;;;;;;;5.05;4.65;;;;;;;11.19;90.87;96257.03;1684742;83;21490;-81
2021/09/19 00:59:51;;;;;;;5.30;4.80;;;;;;;11.19;90.58;96257.03;1674421;83;21073;-81
2021/09/19 01:02:17;;;;;;;5.20;4.70;;;;;;;11.21;90.75;96262.84;1646743;84;21030;-81
2021/09/19 01:04:43;;;;;;;4.87;4.37;;;;;;;11.21;90.45;96264.14;1654741;84;21428;-81
2021/09/19 01:07:09;;;;;;;5.47;4.97;;;;;;;11.19;90.08;96265.64;1679557;83;21079;-81
2021/09/19 01:09:36;;;;;;;6.33;5.60;;;;;;;11.16;90.23;96257.41;1682277;83;21016;-81
2021/09/19 01:12:02;;;;;;;5.25;4.70;;;;;;;11.19;90.39;96257.83;1650928;84;21080;-81
2021/09/19 01:14:28;;;;;;;5.17;4.67;;;;;;;11.17;90.31;96253.81;1683787;83;21021;-81
2021/09/19 01:16:57;;;;;;;4.58;4.17;;;;;;;11.11;90.28;96256.69;1673138;83;21426;-81
2021/09/19 01:19:24;;;;;;;4.05;3.65;;;;;;;11.05;90.24;96255.62;1681052;83;21054;-81
2021/09/19 01:21:51;;;;;;;4.72;4.33;;;;;;;11.03;90.47;96256.30;1667934;83;21462;-81
2021/09/19 01:24:18;;;;;;;5.20;4.45;;;;;;;11.03;90.26;96259.40;1683869;83;21395;-81
2021/09/19 01:26:43;;;;;;;6.00;5.40;;;;;;;10.98;89.72;96265.17;1688406;83;21055;-81
2021/09/19 01:29:09;;;;;;;6.50;5.90;;;;;;;10.96;90.03;96265.05;1683311;83;21110;-81
2021/09/19 01:31:38;;;;;;;4.72;4.30;;;;;;;10.98;90.22;96262.57;1663342;84;21108;-81
2021/09/19 01:34:04;;;;;;;6.08;5.47;;;;;;;10.96;89.67;96267.16;1685964;83;21131;-81
2021/09/19 01:36:34;;;;;;;5.22;4.72;;;;;;;10.89;89.79;96267.58;1683537;83;21076;-81
2021/09/19 01:39:00;;;;;;;6.25;5.62;;;;;;;10.90;89.73;96267.08;1680346;83;21396;-81
2021/09/19 01:41:26;;;;;;;6.03;5.42;;;;;;;10.84;89.50;96267.34;1693648;83;21065;-81
2021/09/19 01:43:53;;;;;;;6.22;5.62;;;;;;;10.86;89.75;96271.05;1682065;83;21048;-81
2021/09/19 01:46:19;;;;;;;6.20;5.53;;;;;;;10.84;89.52;96271.23;1682670;83;21076;-81
2021/09/19 01:48:45;;;;;;;6.28;5.67;;;;;;;10.75;89.60;96272.36;1687227;83;21013;-81
2021/09/19 01:51:11;;;;;;;6.83;5.83;;;;;;;10.72;89.76;96276.61;1665999;84;21030;-81
2021/09/19 01:53:40;;;;;;;6.45;5.85;;;;;;;10.71;89.65;96275.80;1685246;83;21048;-81
2021/09/19 01:56:07;;;;;;;7.03;6.37;;;;;;;10.71;89.74;96277.10;1678662;84;21028;-81
2021/09/19 01:58:45;;;;;;;8.68;6.95;;;;;;;10.73;89.93;96280.81;1679259;83;21003;-81
2021/09/19 02:01:11;;;;;;;8.43;7.72;;;;;;;10.70;89.73;96275.99;1658309;85;21083;-81
2021/09/19 02:03:40;;;;;;;9.73;8.83;;;;;;;10.71;90.00;96271.91;1672578;83;20946;-81
2021/09/19 02:06:06;;;;;;;10.23;9.23;;;;;;;10.69;89.93;96276.48;1679962;83;21051;-82
2021/09/19 02:08:35;;;;;;;10.80;8.78;;;;;;;10.65;90.12;96279.64;1676763;83;21680;-81
2021/09/19 02:11:00;;;;;;;9.85;8.85;;;;;;;10.67;90.34;96277.66;1676847;84;21044;-81
2021/09/19 02:13:26;;;;;;;11.48;10.28;;;;;;;10.67;90.31;96275.88;1675263;84;22024;-81
2021/09/19 02:15:52;;;;;;;11.20;10.10;;;;;;;10.64;90.05;96282.73;1675776;84;21086;-81
2021/09/19 02:18:17;;;;;;;14.13;12.73;;;;;;;10.57;90.19;96274.55;1679558;83;21009;-81
2021/09/19 02:20:43;;;;;;;14.87;12.88;;;;;;;10.45;89.87;96288.04;1681351;83;21071;-81
2021/09/19 02:23:09;;;;;;;14.73;13.10;;;;;;;10.41;90.11;96291.16;1683136;83;21003;-81
2021/09/19 02:25:35;;;;;;;12.10;10.90;;;;;;;10.40;90.40;96286.95;1683087;83;22059;-81
2021/09/19 02:28:01;;;;;;;10.78;9.78;;;;;;;10.32;89.63;96292.27;1627556;85;21064;-81
2021/09/19 02:30:26;;;;;;;11.00;9.90;;;;;;;10.22;89.42;96289.45;1681168;83;21035;-81
2021/09/19 02:32:53;;;;;;;14.25;9.70;;;;;;;10.21;89.61;96290.44;1675411;84;21028;-81
2021/09/19 02:35:19;;;;;;;11.93;10.68;;;;;;;10.16;89.30;96292.75;1672352;83;21436;-81
2021/09/19 02:37:47;;;;;;;12.73;10.85;;;;;;;10.13;89.49;96295.72;1672425;83;21170;-81
2021/09/19 02:40:13;;;;;;;13.35;10.72;;;;;;;10.15;89.52;96302.83;1665752;83;21414;-81
2021/09/19 02:42:39;;;;;;;13.05;10.95;;;;;;;10.11;89.71;96298.19;1678892;83;21058;-81
2021/09/19 02:45:05;;;;;;;10.43;9.43;;;;;;;10.09;89.61;96304.86;1671390;83;21026;-81
2021/09/19 02:47:31;;;;;;;12.25;7.83;;;;;;;10.05;88.84;96310.56;1680927;83;21103;-81
2021/09/19 02:49:57;;;;;;;9.65;8.75;;;;;;;10.03;89.00;96313.84;1680791;83;21127;-81
2021/09/19 02:52:22;;;;;;;10.45;7.95;;;;;;;10.05;89.00;96302.78;1681197;83;21071;-81
2021/09/19 02:54:48;;;;;;;9.45;7.03;;;;;;;10.03;88.41;96315.94;1667835;84;21027;-81
2021/09/19 02:57:14;;;;;;;10.63;7.42;;;;;;;9.94;87.33;96319.63;1677752;83;21091;-81
2021/09/19 02:59:39;;;;;;;8.48;6.92;;;;;;;9.85;88.06;96320.69;1662917;83;21092;-81
2021/09/19 03:02:08;;;;;;;8.75;6.70;;;;;;;9.83;88.47;96320.06;1664326;84;21069;-81
2021/09/19 03:04:34;;;;;;;9.05;7.08;;;;;;;9.74;87.03;96325.01;1660341;84;21093;-81
2021/09/19 03:07:00;;;;;;;9.75;7.50;;;;;;;9.62;87.41;96328.05;1676899;83;21480;-81
2021/09/19 03:09:25;;;;;;;10.75;6.78;;;;;;;9.61;87.64;96321.75;1671726;83;21008;-81
2021/09/19 03:11:51;;;;;;;8.95;7.15;;;;;;;9.63;88.08;96326.27;1672864;84;21344;-81
2021/09/19 03:14:17;;;;;;;9.85;7.80;;;;;;;9.61;87.89;96331.64;1677286;83;21083;-81
2021/09/19 03:16:43;;;;;;;9.23;6.70;;;;;;;9.61;87.91;96323.05;1676735;84;21044;-81
2021/09/19 03:19:08;;;;;;;8.53;6.72;;;;;;;9.55;86.82;96328.92;1684227;83;22163;-81
2021/09/19 03:21:34;;;;;;;9.25;7.50;;;;;;;9.50;86.91;96331.25;1665187;83;21064;-81
2021/09/19 03:24:00;;;;;;;10.63;8.15;;;;;;;9.44;86.34;96335.36;1683578;83;21030;-81
2021/09/19 03:26:26;;;;;;;11.08;8.53;;;;;;;9.35;86.48;96331.70;1680622;83;21076;-81
2021/09/19 03:28:51;;;;;;;11.00;8.10;;;;;;;9.33;87.21;96332.69;1678324;83;21042;-81
2021/09/19 03:31:17;;;;;;;8.95;7.28;;;;;;;9.34;87.19;96334.78;1683400;83;22123;-81
2021/09/19 03:33:44;;;;;;;9.00;6.80;;;;;;;9.32;87.23;96332.38;1674382;83;21040;-81
2021/09/19 03:36:09;;;;;;;9.03;7.20;;;;;;;9.28;86.60;96337.59;1670507;83;21529;-81
2021/09/19 03:38:35;;;;;;;9.65;8.58;;;;;;;9.25;86.72;96338.41;1679739;83;21050;-81
2021/09/19 03:41:01;;;;;;;10.30;9.20;;;;;;;9.23;86.77;96338.59;1677816;83;21616;-81
2021/09/19 03:43:27;;;;;;;10.68;9.10;;;;;;;9.17;86.34;96339.78;1679653;83;21084;-81
2021/09/19 03:45:53;;;;;;;11.78;9.00;;;;;;;9.05;85.99;96345.05;1683215;84;21071;-81
2021/09/19 03:48:18;;;;;;;10.98;8.88;;;;;;;9.00;86.67;96345.58;1688185;83;21017;-81
2021/09/19 03:50:44;;;;;;;12.37;9.33;;;;;;;8.98;86.34;96344.95;1683897;83;21131;-81
2021/09/19 03:53:10;;;;;;;12.40;10.15;;;;;;;8.97;86.59;96344.14;1688257;83;21382;-82
2021/09/19 03:55:35;;;;;;;11.57;9.28;;;;;;;8.94;86.09;96346.25;1677687;83;21012;-81
2021/09/19 03:58:01;;;;;;;13.35;9.18;;;;;;;8.91;86.59;96338.33;1682685;84;21117;-81
2021/09/19 04:00:28;;;;;;;11.40;9.68;;;;;;;8.96;87.08;96341.23;1653132;85;21449;-81
2021/09/19 04:02:53;;;;;;;11.05;9.08;;;;;;;8.97;87.47;96332.48;1686132;84;21021;-81
2021/09/19 04:05:19;;;;;;;11.50;9.78;;;;;;;9.01;87.80;96332.94;1686561;83;21454;-81
2021/09/19 04:07:45;;;;;;;11.88;9.58;;;;;;;9.07;87.97;96340.00;1681432;84;20954;-81
2021/09/19 04:10:11;;;;;;;10.95;9.85;;;;;;;9.12;87.01;96335.13;1682134;83;21012;-81
2021/09/19 04:12:36;;;;;;;12.55;10.85;;;;;;;9.05;86.44;96339.86;1686266;83;20973;-81
2021/09/19 04:15:03;;;;;;;12.23;10.38;;;;;;;9.03;86.76;96337.45;1637522;86;21410;-81
2021/09/19 04:17:29;;;;;;;12.90;11.15;;;;;;;9.04;86.98;96341.66;1687419;83;21057;-81
2021/09/19 04:19:55;;;;;;;11.57;9.95;;;;;;;9.00;86.17;96346.88;1656239;85;22311;-81
2021/09/19 04:22:23;;;;;;;10.70;9.48;;;;;;;9.01;86.63;96347.99;1671781;84;21428;-81
2021/09/19 04:24:48;;;;;;;10.82;9.48;;;;;;;9.06;86.50;96353.14;1680084;83;20992;-81
2021/09/19 04:27:14;;;;;;;11.63;9.38;;;;;;;9.07;86.26;96354.75;1686395;83;21032;-81
2021/09/19 04:29:40;;;;;;;11.20;10.00;;;;;;;9.01;85.81;96351.88;1683111;83;21807;-81
2021/09/19 04:32:06;;;;;;;12.00;10.80;;;;;;;8.96;85.65;96343.83;1677970;83;20998;-81
2021/09/19 04:34:32;;;;;;;12.88;11.50;;;;;;;8.94;85.96;96343.66;1684686;83;21087;-81
2021/09/19 04:36:58;;;;;;;13.08;11.40;;;;;;;8.90;85.95;96338.02;1685397;84;21582;-81
2021/09/19 04:39:24;;;;;;;12.13;10.82;;;;;;;8.92;86.23;96343.02;1681094;83;21087;-81
2021/09/19 04:41:50;;;;;;;14.53;11.97;;;;;;;8.94;86.42;96343.66;1679775;83;21130;-81
2021/09/19 04:44:16;;;;;;;12.80;11.35;;;;;;;8.96;86.31;96347.71;1684360;83;21095;-81
2021/09/19 04:46:41;;;;;;;15.35;13.05;;;;;;;8.99;86.32;96349.15;1688235;83;21517;-81
2021/09/19 04:49:07;;;;;;;17.35;13.48;;;;;;;9.03;86.45;96346.52;1685103;83;21095;-81
2021/09/19 04:51:33;;;;;;;15.95;13.08;;;;;;;8.95;85.81;96352.58;1679806;83;21159;-81
2021/09/19 04:53:58;;;;;;;16.45;14.13;;;;;;;8.92;86.27;96352.90;1671146;84;21073;-81
2021/09/19 04:56:24;;;;;;;19.35;14.47;;;;;;;8.95;86.54;96351.28;1682701;83;21452;-81
2021/09/19 04:58:50;;;;;;;19.12;13.90;;;;;;;9.02;86.59;96355.28;1666841;82;20989;-80
2021/09/19 05:01:15;;;;;;;17.42;15.10;;;;;;;9.07;86.35;96353.45;1682932;83;21082;-81
2021/09/19 05:03:41;;;;;;;14.60;12.98;;;;;;;9.07;86.24;96358.64;1677539;83;21024;-81
2021/09/19 05:06:07;;;;;;;15.23;13.62;;;;;;;9.05;86.21;96355.42;1680458;83;21012;-81
2021/09/19 05:08:32;;;;;;;17.67;15.78;;;;;;;9.06;86.33;96357.83;1671095;83;21016;-81
2021/09/19 05:10:58;;;;;;;16.60;14.47;;;;;;;9.05;86.43;96358.01;1680137;83;21055;-81
2021/09/19 05:13:24;;;;;;;11.65;10.45;;;;;;;9.05;86.52;96356.22;1679056;84;21022;-81
2021/09/19 05:15:50;;;;;;;12.55;11.18;;;;;;;9.09;86.12;96362.67;1688104;84;20993;-81
2021/09/19 05:18:16;;;;;;;11.50;9.55;;;;;;;9.13;86.29;96361.37;1639851;85;21054;-81
2021/09/19 05:20:42;;;;;;;13.13;10.95;;;;;;;9.11;85.53;96353.42;1678126;83;21031;-81
2021/09/19 05:23:08;;;;;;;11.83;10.38;;;;;;;9.09;85.39;96356.67;1680683;83;21012;-82
2021/09/19 05:25:34;;;;;;;14.83;11.90;;;;;;;9.07;85.85;96364.63;1680020;83;21068;-81
2021/09/19 05:28:00;;;;;;;10.78;9.68;;;;;;;9.07;86.19;96364.63;1676630;83;21036;-81
2021/09/19 05:30:25;;;;;;;9.58;8.63;;;;;;;9.02;85.76;96361.27;1679545;84;20988;-81
2021/09/19 05:32:51;;;;;;;10.25;9.20;;;;;;;9.02;86.10;96359.16;1691341;83;21589;-81
2021/09/19 05:35:17;;;;;;;9.45;8.35;;;;;;;9.10;86.27;96363.47;1690303;83;21102;-81
2021/09/19 05:37:43;;;;;;;9.78;8.78;;;;;;;9.14;86.48;96376.42;1684574;83;21075;-81
2021/09/19 05:40:10;;;;;;;9.03;8.13;;;;;;;9.07;86.15;96375.48;1686020;83;21126;-81
2021/09/19 05:42:36;;;;;;;10.20;8.33;;;;;;;8.96;85.65;96370.23;1662521;84;21039;-81
2021/09/19 05:45:02;;;;;;;8.00;7.17;;;;;;;8.89;86.01;96374.47;1682503;83;20993;-81
2021/09/19 05:47:28;;;;;;;7.87;6.83;;;;;;;8.87;85.89;96369.45;1659157;84;20999;-81
2021/09/19 05:49:54;;;;;;;11.05;7.37;;;;;;;8.86;85.59;96365.25;1675393;84;21131;-82
2021/09/19 05:52:20;;;;;;;7.03;6.33;;;;;;;8.79;85.14;96364.83;1679550;83;21100;-81
2021/09/19 05:54:46;;;;;;;7.53;6.62;;;;;;;8.79;85.10;96374.70;1677903;83;21020;-81
2021/09/19 05:57:11;;;;;;;10.23;8.40;;;;;;;8.73;85.34;96374.06;1678940;83;20973;-81
2021/09/19 05:59:37;;;;;;;10.80;9.75;;;;;;;8.72;85.54;96376.34;1684709;83;21422;-81
2021/09/19 06:02:03;;;;;;;9.38;8.48;;;;;;;8.72;85.46;96373.75;1671542;83;21000;-81
2021/09/19 06:04:29;;;;;;;8.88;8.03;;;;;;;8.74;85.46;96375.67;1688065;83;21036;-81
2021/09/19 06:06:55;;;;;;;8.80;7.65;;;;;;;8.73;85.12;96370.19;1679531;83;21044;-81
2021/09/19 06:09:20;;;;;;;9.13;7.85;;;;;;;8.72;85.56;96369.86;1699814;83;21411;-81
2021/09/19 06:11:46;;;;;;;9.05;6.90;;;;;;;8.73;85.89;96374.06;1700948;83;20987;-81
2021/09/19 06:14:12;;;;;;;8.75;6.90;;;;;;;8.68;85.70;96373.29;1671193;84;21092;-80
2021/09/19 06:16:39;;;;;;;7.97;6.47;;;;;;;8.69;86.08;96373.61;1670950;84;21495;-81
2021/09/19 06:19:05;;;;;;;7.67;6.87;;;;;;;8.78;86.36;96372.25;1690712;83;21053;-81
2021/09/19 06:21:30;;;;;;;7.85;6.95;;;;;;;8.83;86.28;96373.37;1685552;83;21407;-81
2021/09/19 06:23:57;;;;;;;8.20;7.40;;;;;;;8.89;86.11;96372.69;1676923;84;21001;-81
2021/09/19 06:26:22;;;;;;;7.75;6.62;;;;;;;8.89;85.96;96368.80;1685561;83;21412;-81
2021/09/19 06:28:48;;;;;;;10.40;7.60;;;;;;;8.89;86.07;96377.05;1699218;84;21040;-81
2021/09/19 06:31:17;;;;;;;10.05;7.72;;;;;;;8.90;86.19;96379.48;1684555;84;21061;-81
2021/09/19 06:33:43;;;;;;;7.97;7.12;;;;;;;8.89;85.77;96375.77;1656091;84;21055;-81
2021/09/19 06:36:09;;;;;;;8.75;6.72;;;;;;;8.88;86.27;96368.97;1656294;85;21109;-80
2021/09/19 06:38:35;;;;;;;8.45;7.55;;;;;;;8.92;86.26;96374.12;1658655;84;21586;-81
2021/09/19 06:41:01;;;;;;;11.45;10.25;;;;;;;8.94;86.24;96367.78;1676328;83;21105;-81
2021/09/19 06:43:27;;;;;;;16.82;13.65;;;;;;;8.92;86.11;96384.00;1676032;83;21020;-81
2021/09/19 06:45:53;;;;;;;18.45;15.80;;;;;;;8.87;86.15;96376.42;1669713;83;21513;-80
2021/09/19 06:48:18;;;;;;;16.65;14.10;;;;;;;8.80;86.22;96375.02;1694821;84;21077;-80
2021/09/19 06:50:44;;;;;;;15.90;13.93;;;;;;;8.76;86.25;96381.49;1676090;84;21025;-82
2021/09/19 06:53:10;;;;;;;16.95;13.58;;;;;;;8.76;86.50;96376.80;1682998;83;21049;-81
2021/09/19 06:55:35;;;;;;;18.20;15.03;;;;;;;8.80;86.59;96379.39;1653629;85;21411;-81
2021/09/19 06:58:01;;;;;;;17.82;15.88;;;;;;;8.82;86.69;96378.24;1691180;83;21016;-81
2021/09/19 07:00:27;;;;;;;19.60;17.52;;;;;;;8.86;86.91;96380.80;1694708;84;21063;-81
2021/09/19 07:02:52;;;;;;;22.73;19.05;;;;;;;8.88;87.02;96381.92;1692236;84;21009;-81
2021/09/19 07:05:19;;;;;;;19.80;17.07;;;;;;;8.89;87.19;96379.16;1681414;84;21069;-81
2021/09/19 07:07:45;;;;;;;18.57;15.88;;;;;;;8.88;86.80;96378.84;1689192;83;21021;-81
2021/09/19 07:10:11;;;;;;;17.10;14.63;;;;;;;8.87;86.83;96384.20;1676806;83;20991;-81
2021/09/19 07:12:37;;;;;;;13.95;12.45;;;;;;;8.85;86.75;96381.78;1687554;83;21465;-81
2021/09/19 07:15:05;;;;;;;18.12;14.68;;;;;;;8.87;86.70;96382.41;1693197;83;21028;-81
2021/09/19 07:17:32;;;;;;;16.35;14.60;;;;;;;8.86;86.81;96384.69;1698298;83;21419;-81
2021/09/19 07:19:59;;;;;;;18.87;15.43;;;;;;;8.87;87.06;96384.20;1673698;84;21047;-81
2021/09/19 07:22:27;;;;;;;19.60;16.52;;;;;;;8.85;86.82;96387.45;1662314;84;20992;-81
2021/09/19 07:24:52;;;;;;;20.52;16.90;;;;;;;8.85;86.89;96389.55;1679697;84;21006;-80
2021/09/19 07:27:20;;;;;;;18.25;15.45;;;;;;;8.88;87.04;96388.41;1680895;84;21074;-81
2021/09/19 07:29:46;;;;;;;15.80;13.83;;;;;;;8.90;86.82;96389.84;1681610;84;21379;-81
2021/09/19 07:32:13;;;;;;;14.50;13.00;;;;;;;8.86;86.59;96392.46;1685543;84;20997;-81
2021/09/19 07:34:40;;;;;;;15.50;13.03;;;;;;;8.81;86.73;96388.29;1681067;83;21024;-81
2021/09/19 07:37:06;;;;;;;15.78;13.62;;;;;;;8.77;86.92;96389.58;1685795;84;21374;-81
2021/09/19 07:39:33;;;;;;;18.00;13.83;;;;;;;8.80;87.18;96385.88;1684741;84;21016;-80
2021/09/19 07:42:00;;;;;;;16.10;11.83;;;;;;;8.84;87.30;96389.73;1687840;83;21375;-81
2021/09/19 07:44:26;;;;;;;13.45;10.80;;;;;;;8.76;86.44;96395.74;1673774;83;21067;-81
2021/09/19 07:46:53;;;;;;;14.83;12.50;;;;;;;8.66;86.59;96382.22;1682302;84;21079;-81
2021/09/19 07:49:20;;;;;;;13.70;12.18;;;;;;;8.67;86.76;96393.70;1686154;83;21025;-81
2021/09/19 07:51:46;;;;;;;14.50;11.73;;;;;;;8.67;87.10;96392.41;1684638;83;21071;-81
2021/09/19 07:54:12;;;;;;;14.30;12.28;;;;;;;8.71;87.35;96398.05;1676212;84;21024;-81
2021/09/19 07:56:38;;;;;;;13.43;11.65;;;;;;;8.77;87.39;96398.65;1689804;84;21012;-81
2021/09/19 07:59:04;;;;;;;13.60;11.10;;;;;;;8.79;87.42;96400.61;1672108;84;21495;-81
2021/09/19 08:01:30;;;;;;;14.75;10.88;;;;;;;8.82;87.25;96396.87;1679523;84;21088;-81
2021/09/19 08:03:56;;;;;;;12.47;10.03;;;;;;;8.78;86.80;96399.45;1667185;84;21024;-81
2021/09/19 08:06:22;;;;;;;13.00;11.10;;;;;;;8.67;86.68;96407.14;1677320;84;21017;-81
2021/09/19 08:08:49;;;;;;;11.48;10.00;;;;;;;8.67;87.31;96406.65;1688435;84;21007;-81
2021/09/19 08:11:16;;;;;;;10.30;9.08;;;;;;;8.65;86.92;96407.80;1691205;84;21026;-81
2021/09/19 08:13:43;;;;;;;14.30;10.15;;;;;;;8.62;86.97;96410.70;1656506;83;20974;-81
2021/09/19 08:16:09;;;;;;;11.63;10.35;;;;;;;8.63;87.18;96410.56;1675952;84;21039;-81
2021/09/19 08:18:35;;;;;;;13.53;10.50;;;;;;;8.66;87.21;96410.70;1666426;84;21021;-81
2021/09/19 08:21:03;;;;;;;11.63;10.00;;;;;;;8.67;87.44;96416.20;1673049;84;21039;-81
2021/09/19 08:23:28;;;;;;;11.78;10.30;;;;;;;8.66;87.29;96413.30;1672194;84;21011;-81
2021/09/19 08:25:54;;;;;;;13.98;10.32;;;;;;;8.65;87.50;96411.68;1689261;83;21143;-81
2021/09/19 08:28:20;;;;;;;11.78;10.13;;;;;;;8.66;87.71;96414.59;1691594;84;21089;-81
2021/09/19 08:30:46;;;;;;;11.35;9.53;;;;;;;8.64;87.71;96417.84;1690624;83;21563;-81
2021/09/19 08:33:12;;;;;;;11.83;9.95;;;;;;;8.64;87.33;96412.17;1692083;84;21160;-81
2021/09/19 08:35:38;;;;;;;12.95;11.30;;;;;;;8.65;87.23;96420.75;1669595;84;21316;-81
2021/09/19 08:38:06;;;;;;;13.03;10.85;;;;;;;8.70;87.62;96422.34;1684869;84;21420;-81
2021/09/19 08:40:32;;;;;;;14.60;10.40;;;;;;;8.74;87.48;96415.83;1677366;83;21032;-80
2021/09/19 08:42:58;;;;;;;11.90;10.08;;;;;;;8.80;87.58;96419.55;1673313;83;21017;-81
2021/09/19 08:45:24;;;;;;;10.63;9.53;;;;;;;8.88;87.45;96415.61;1687922;84;20949;-80
2021/09/19 08:47:50;;;;;;;12.23;10.32;;;;;;;8.98;87.65;96414.92;1691983;84;21036;-81
2021/09/19 08:50:16;;;;;;;8.33;7.50;;;;;;;9.07;87.32;96419.06;1686930;83;21015;-81
2021/09/19 08:52:42;;;;;;;11.33;10.05;;;;;;;9.08;86.17;96422.45;1691969;84;21431;-81
2021/09/19 08:55:09;;;;;;;12.95;10.55;;;;;;;8.95;85.88;96417.86;1689633;83;21004;-80
2021/09/19 08:57:34;;;;;;;13.80;12.13;;;;;;;8.88;86.04;96425.97;1691174;84;21502;-81
2021/09/19 09:00:04;;;;;;;13.48;11.97;;;;;;;8.89;86.24;96431.47;1685373;84;21052;-81
2021/09/19 09:02:31;;;;;;;13.38;11.22;;;;;;;8.89;86.12;96432.77;1671749;84;21108;-80
2021/09/19 09:04:58;;;;;;;12.30;10.93;;;;;;;8.96;86.62;96431.94;1645495;84;21065;-81
2021/09/19 09:07:24;;;;;;;18.52;15.53;;;;;;;9.03;86.69;96430.27;1641392;85;21076;-81
2021/09/19 09:09:57;;;;;;;17.32;14.95;;;;;;;9.16;87.18;96434.09;1629654;87;21029;-80
2021/09/19 09:12:24;;;;;;;14.33;12.20;;;;;;;9.28;87.46;96437.42;1651084;86;21020;-81
2021/09/19 09:14:53;;;;;;;13.88;11.93;;;;;;;9.38;87.26;96426.00;1649142;86;21044;-81
2021/09/19 09:17:24;;;;;;;14.85;11.48;;;;;;;9.43;86.75;96427.08;1693626;83;21003;-81
2021/09/19 09:19:52;;;;;;;16.57;13.35;;;;;;;9.52;86.57;96425.25;1685607;83;21454;-81
2021/09/19 09:22:32;;;;;;;15.75;13.72;;;;;;;9.53;86.27;96428.97;1664373;84;21111;-81
2021/09/19 09:25:11;;;;;;;14.87;13.38;;;;;;;9.59;86.49;96430.05;1684179;84;21432;-81
2021/09/19 09:27:46;;;;;;;21.93;18.40;;;;;;;9.58;86.17;96429.23;1668112;83;21087;-81
2021/09/19 09:30:17;;;;;;;54.03;42.23;;;;;;;9.55;87.08;96431.38;1680941;83;21005;-81
2021/09/19 09:33:00;;;;;;;45.05;36.35;;;;;;;9.59;86.93;96430.85;1688128;83;21076;-80
2021/09/19 09:35:38;;;;;;;64.03;49.08;;;;;;;9.64;86.66;96429.05;1677776;84;21104;-81
2021/09/19 09:38:21;;;;;;;24.63;20.55;;;;;;;9.67;86.30;96433.89;1679324;83;21015;-80
2021/09/19 09:40:47;;;;;;;15.25;13.65;;;;;;;9.68;85.85;96429.50;1689135;84;21032;-81
2021/09/19 09:43:14;;;;;;;12.85;11.55;;;;;;;9.62;85.48;96430.53;1695750;84;20993;-81
2021/09/19 09:45:42;;;;;;;13.95;10.93;;;;;;;9.60;85.63;96429.09;1671951;83;21051;-81
2021/09/19 09:48:27;;;;;;;18.73;15.35;;;;;;;9.60;85.29;96429.09;1687176;84;21005;-80
2021/09/19 09:50:54;;;;;;;24.20;19.07;;;;;;;9.61;85.60;96432.00;1688490;84;21064;-80
2021/09/19 09:53:21;;;;;;;36.35;31.50;;;;;;;9.68;86.19;96429.02;1662227;84;21024;-80
2021/09/19 09:55:48;;;;;;;32.28;27.48;;;;;;;9.76;86.09;96429.42;1671721;84;21040;-80
2021/09/19 09:58:18;;;;;;;16.17;14.47;;;;;;;9.80;86.19;96432.01;1683567;83;21032;-80
2021/09/19 10:00:43;;;;;;;12.68;11.38;;;;;;;9.82;85.75;96436.53;1695252;83;21096;-80
2021/09/19 10:03:08;;;;;;;14.78;13.28;;;;;;;9.72;85.11;96437.25;1672433;84;21585;-80
2021/09/19 10:05:34;;;;;;;14.13;11.53;;;;;;;9.63;85.67;96439.92;1687064;83;21017;-81
2021/09/19 10:08:00;;;;;;;12.25;9.43;;;;;;;9.60;85.14;96449.36;1682543;84;21043;-80
2021/09/19 10:10:29;;;;;;;10.35;8.93;;;;;;;9.57;84.82;96444.48;1687783;84;21335;-81
2021/09/19 10:12:55;;;;;;;11.73;10.53;;;;;;;9.59;85.23;96445.12;1641261;85;21430;-80
2021/09/19 10:15:22;;;;;;;10.78;9.60;;;;;;;9.62;85.53;96447.39;1676887;84;21066;-80
2021/09/19 10:17:48;;;;;;;12.25;9.98;;;;;;;9.66;85.50;96449.63;1675789;84;21004;-80
2021/09/19 10:20:19;;;;;;;10.45;9.38;;;;;;;9.69;86.08;96444.09;1683194;84;21021;-80
2021/09/19 10:22:56;;;;;;;10.85;8.50;;;;;;;9.75;85.77;96448.08;1661918;84;21117;-80
2021/09/19 10:25:36;;;;;;;10.95;8.95;;;;;;;9.85;86.03;96449.15;1678809;84;21112;-80
2021/09/19 10:28:35;;;;;;;18.90;12.53;;;;;;;9.89;85.57;96451.20;1697021;84;21108;-81
2021/09/19 10:31:17;;;;;;;23.83;15.00;;;;;;;9.91;85.42;96444.55;1620883;85;21033;-81
2021/09/19 10:33:55;;;;;;;;;;;;;;;9.91;85.73;96455.73;1653618;84;21024;-80
2021/09/19 10:36:39;;;;;;;16.67;15.18;;;;;;;9.89;84.83;96449.91;1672129;84;20191;-80
2021/09/19 10:39:22;;;;;;;18.98;17.32;;;;;;;9.83;84.30;96445.44;1685386;83;21067;-81
2021/09/19 10:42:31;;;;;;;15.65;14.07;;;;;;;9.82;84.62;96443.82;1697838;83;21144;-80
2021/09/19 10:45:07;;;;;;;16.02;14.33;;;;;;;9.86;84.66;96446.38;1696778;84;21004;-80
2021/09/19 10:47:46;;;;;;;17.40;13.72;;;;;;;9.89;85.02;96449.91;1677940;84;21076;-80
2021/09/19 10:50:22;;;;;;;13.98;12.68;;;;;;;9.91;85.07;96449.73;1683656;84;21415;-81
2021/09/19 10:53:00;;;;;;;22.95;13.65;;;;;;;9.94;85.51;96454.59;1689539;83;21100;-80
2021/09/19 10:55:36;;;;;;;13.20;11.33;;;;;;;9.89;84.36;96460.78;1660025;84;21114;-81
2021/09/19 10:58:13;;;;;;;15.32;13.50;;;;;;;9.87;84.79;96461.45;1681278;83;21131;-80
2021/09/19 11:00:43;;;;;;;11.95;10.75;;;;;;;9.82;84.76;96452.09;1682866;84;21079;-80
2021/09/19 11:03:18;;;;;;;14.05;11.57;;;;;;;9.78;84.66;96457.33;1684326;84;21102;-80
2021/09/19 11:05:51;;;;;;;12.20;10.70;;;;;;;9.73;84.50;96458.32;1692125;83;21105;-81
2021/09/19 11:08:26;;;;;;;12.05;10.72;;;;;;;9.69;84.93;96458.36;1689064;84;21081;-81
2021/09/19 11:10:58;;;;;;;11.83;9.90;;;;;;;9.68;84.53;96455.45;1680589;83;21132;-80
2021/09/19 11:13:30;;;;;;;14.93;12.43;;;;;;;9.63;84.47;96461.98;1675943;83;21021;-80
2021/09/19 11:16:07;;;;;;;13.90;10.63;;;;;;;9.59;84.30;96461.17;1672257;84;22083;-80
2021/09/19 11:18:52;;;;;;;11.18;9.93;;;;;;;9.49;83.94;96456.73;1689194;83;21039;-80
2021/09/19 11:21:27;;;;;;;13.78;10.82;;;;;;;9.43;84.44;96460.80;1636322;86;21097;-80
2021/09/19 11:23:56;;;;;;;13.45;12.05;;;;;;;9.44;84.64;96455.95;1694911;84;20981;-80
2021/09/19 11:26:27;;;;;;;13.25;10.90;;;;;;;9.49;85.04;96456.73;1687414;84;21025;-80
2021/09/19 11:28:56;;;;;;;21.27;14.18;;;;;;;9.52;85.05;96459.77;1681993;84;21055;-80
2021/09/19 11:31:22;;;;;;;35.70;18.65;;;;;;;9.57;85.02;96457.46;1696454;84;21016;-80